sensor_id;sensor_type;location;lat;lon;timestamp;pressure;altitude;pressure_sealevel;temperature;humidity
31005;BME280;17676;52.254;4.490;2023-04-01T00:01:34;99005.59;;;9.96;59.78
31005;BME280;17676;52.254;4.490;2023-04-01T00:04:00;99008.63;;;9.99;59.69
31005;BME280;17676;52.254;4.490;2023-04-01T00:06:27;99016.41;;;9.96;59.84
31005;BME280;17676;52.254;4.490;2023-04-01T00:08:52;99018.56;;;9.94;59.86
31005;BME280;17676;52.254;4.490;2023-04-01T00:11:18;99014.78;;;9.95;59.79
31005;BME280;17676;52.254;4.490;2023-04-01T00:13:44;99015.84;;;9.94;59.74
31005;BME280;17676;52.254;4.490;2023-04-01T00:16:09;99023.78;;;9.84;60.14
31005;BME280;17676;52.254;4.490;2023-04-01T00:18:35;99021.19;;;9.89;59.74
31005;BME280;17676;52.254;4.490;2023-04-01T00:21:01;99028.66;;;9.82;60.07
31005;BME280;17676;52.254;4.490;2023-04-01T00:23:26;99025.28;;;9.91;59.50
31005;BME280;17676;52.254;4.490;2023-04-01T00:25:52;99037.97;;;9.91;59.47
31005;BME280;17676;52.254;4.490;2023-04-01T00:28:18;99020.38;;;9.88;59.42
31005;BME280;17676;52.254;4.490;2023-04-01T00:30:44;99030.34;;;9.88;59.34
31005;BME280;17676;52.254;4.490;2023-04-01T00:33:10;99030.50;;;9.98;58.92
31005;BME280;17676;52.254;4.490;2023-04-01T00:35:35;99037.13;;;9.90;59.26
31005;BME280;17676;52.254;4.490;2023-04-01T00:38:02;99044.44;;;9.90;59.28
31005;BME280;17676;52.254;4.490;2023-04-01T00:40:33;99046.06;;;9.91;59.11
31005;BME280;17676;52.254;4.490;2023-04-01T00:43:00;99041.16;;;9.88;59.09
31005;BME280;17676;52.254;4.490;2023-04-01T00:47:54;99056.44;;;9.99;58.65
31005;BME280;17676;52.254;4.490;2023-04-01T00:50:22;99058.50;;;9.92;58.99
31005;BME280;17676;52.254;4.490;2023-04-01T00:52:49;99060.88;;;9.88;59.10
31005;BME280;17676;52.254;4.490;2023-04-01T00:55:16;99059.81;;;9.89;58.91
31005;BME280;17676;52.254;4.490;2023-04-01T00:57:44;99064.25;;;9.79;59.19
31005;BME280;17676;52.254;4.490;2023-04-01T01:00:12;99070.78;;;9.83;59.06
31005;BME280;17676;52.254;4.490;2023-04-01T01:02:41;99069.66;;;9.79;58.98
31005;BME280;17676;52.254;4.490;2023-04-01T01:05:11;99076.50;;;9.86;58.61
31005;BME280;17676;52.254;4.490;2023-04-01T01:07:56;99082.25;;;9.90;58.27
31005;BME280;17676;52.254;4.490;2023-04-01T01:10:33;99075.63;;;9.81;58.51
31005;BME280;17676;52.254;4.490;2023-04-01T01:13:17;99083.06;;;9.90;57.89
31005;BME280;17676;52.254;4.490;2023-04-01T01:21:15;99100.09;;;9.91;57.71
31005;BME280;17676;52.254;4.490;2023-04-01T01:26:50;99108.44;;;9.89;57.65
31005;BME280;17676;52.254;4.490;2023-04-01T01:29:40;99108.53;;;9.94;57.29
31005;BME280;17676;52.254;4.490;2023-04-01T01:32:38;99113.50;;;10.02;57.01
31005;BME280;17676;52.254;4.490;2023-04-01T01:37:53;99113.50;;;10.02;56.98
31005;BME280;17676;52.254;4.490;2023-04-01T01:40:20;99114.81;;;10.00;57.18
31005;BME280;17676;52.254;4.490;2023-04-01T01:42:50;99125.00;;;10.09;56.87
31005;BME280;17676;52.254;4.490;2023-04-01T01:45:19;99128.69;;;10.03;57.07
31005;BME280;17676;52.254;4.490;2023-04-01T01:47:45;99133.88;;;10.05;57.01
31005;BME280;17676;52.254;4.490;2023-04-01T01:50:14;99125.16;;;10.03;57.04
31005;BME280;17676;52.254;4.490;2023-04-01T01:52:40;99133.19;;;9.98;57.05
31005;BME280;17676;52.254;4.490;2023-04-01T01:55:34;99139.28;;;10.05;56.92
31005;BME280;17676;52.254;4.490;2023-04-01T01:58:16;99141.97;;;10.05;56.86
31005;BME280;17676;52.254;4.490;2023-04-01T02:00:46;99137.81;;;10.02;56.85
31005;BME280;17676;52.254;4.490;2023-04-01T02:03:14;99144.69;;;10.05;56.62
31005;BME280;17676;52.254;4.490;2023-04-01T02:05:40;99151.31;;;10.14;56.12
31005;BME280;17676;52.254;4.490;2023-04-01T02:08:09;99160.56;;;10.18;56.00
31005;BME280;17676;52.254;4.490;2023-04-01T02:10:40;99158.34;;;10.15;55.99
31005;BME280;17676;52.254;4.490;2023-04-01T02:13:19;99164.47;;;10.27;55.50
31005;BME280;17676;52.254;4.490;2023-04-01T02:15:48;99165.63;;;10.31;55.33
31005;BME280;17676;52.254;4.490;2023-04-01T02:18:16;99171.75;;;10.43;54.81
31005;BME280;17676;52.254;4.490;2023-04-01T02:20:44;99186.41;;;10.47;54.65
31005;BME280;17676;52.254;4.490;2023-04-01T02:23:10;99182.09;;;10.46;54.58
31005;BME280;17676;52.254;4.490;2023-04-01T02:25:37;99194.59;;;10.52;54.35
31005;BME280;17676;52.254;4.490;2023-04-01T02:28:06;99190.69;;;10.43;54.67
31005;BME280;17676;52.254;4.490;2023-04-01T02:30:34;99210.16;;;10.45;54.69
31005;BME280;17676;52.254;4.490;2023-04-01T02:33:01;99204.13;;;10.38;54.95
31005;BME280;17676;52.254;4.490;2023-04-01T02:35:28;99206.25;;;10.36;55.11
31005;BME280;17676;52.254;4.490;2023-04-01T02:37:54;99211.81;;;10.30;55.17
31005;BME280;17676;52.254;4.490;2023-04-01T02:40:20;99220.19;;;10.28;55.38
31005;BME280;17676;52.254;4.490;2023-04-01T02:42:46;99226.72;;;10.32;55.32
31005;BME280;17676;52.254;4.490;2023-04-01T02:45:12;99235.19;;;10.36;55.26
31005;BME280;17676;52.254;4.490;2023-04-01T02:47:38;99226.19;;;10.30;55.41
31005;BME280;17676;52.254;4.490;2023-04-01T02:50:05;99240.84;;;10.34;55.34
31005;BME280;17676;52.254;4.490;2023-04-01T02:52:31;99245.59;;;10.44;55.12
31005;BME280;17676;52.254;4.490;2023-04-01T02:54:57;99251.13;;;10.37;55.32
31005;BME280;17676;52.254;4.490;2023-04-01T02:57:23;99257.88;;;10.35;55.46
31005;BME280;17676;52.254;4.490;2023-04-01T02:59:49;99265.31;;;10.44;55.39
31005;BME280;17676;52.254;4.490;2023-04-01T03:02:15;99276.06;;;10.39;55.13
31005;BME280;17676;52.254;4.490;2023-04-01T03:04:41;99272.69;;;10.32;55.42
31005;BME280;17676;52.254;4.490;2023-04-01T03:07:06;99275.75;;;10.36;55.62
31005;BME280;17676;52.254;4.490;2023-04-01T03:09:32;99275.41;;;10.32;55.91
31005;BME280;17676;52.254;4.490;2023-04-01T03:11:57;99277.03;;;10.33;55.90
31005;BME280;17676;52.254;4.490;2023-04-01T03:14:23;99286.88;;;10.39;55.79
31005;BME280;17676;52.254;4.490;2023-04-01T03:16:48;99292.78;;;10.36;55.98
31005;BME280;17676;52.254;4.490;2023-04-01T03:19:14;99303.59;;;10.36;56.02
31005;BME280;17676;52.254;4.490;2023-04-01T03:21:39;99307.94;;;10.37;56.04
31005;BME280;17676;52.254;4.490;2023-04-01T03:24:06;99313.94;;;10.39;56.05
31005;BME280;17676;52.254;4.490;2023-04-01T03:26:33;99308.34;;;10.46;55.94
31005;BME280;17676;52.254;4.490;2023-04-01T03:28:58;99316.53;;;10.51;55.88
31005;BME280;17676;52.254;4.490;2023-04-01T03:31:24;99321.63;;;10.47;56.04
31005;BME280;17676;52.254;4.490;2023-04-01T03:33:50;99330.06;;;10.51;56.04
31005;BME280;17676;52.254;4.490;2023-04-01T03:36:15;99335.25;;;10.52;56.16
31005;BME280;17676;52.254;4.490;2023-04-01T03:38:41;99333.78;;;10.45;56.47
31005;BME280;17676;52.254;4.490;2023-04-01T03:41:12;99334.44;;;10.52;56.49
31005;BME280;17676;52.254;4.490;2023-04-01T03:43:37;99343.44;;;10.41;57.12
31005;BME280;17676;52.254;4.490;2023-04-01T03:46:02;99337.94;;;10.36;57.31
31005;BME280;17676;52.254;4.490;2023-04-01T03:48:28;99347.84;;;10.30;57.83
31005;BME280;17676;52.254;4.490;2023-04-01T03:50:53;99357.25;;;10.28;58.18
31005;BME280;17676;52.254;4.490;2023-04-01T03:53:19;99352.09;;;10.26;58.39
31005;BME280;17676;52.254;4.490;2023-04-01T03:55:44;99353.25;;;10.30;58.41
31005;BME280;17676;52.254;4.490;2023-04-01T03:58:10;99364.84;;;10.14;59.33
31005;BME280;17676;52.254;4.490;2023-04-01T04:00:35;99362.81;;;10.21;59.07
31005;BME280;17676;52.254;4.490;2023-04-01T04:03:01;99366.25;;;10.17;59.44
31005;BME280;17676;52.254;4.490;2023-04-01T04:05:27;99371.97;;;10.20;59.50
31005;BME280;17676;52.254;4.490;2023-04-01T04:07:53;99373.03;;;10.19;59.71
31005;BME280;17676;52.254;4.490;2023-04-01T04:10:18;99381.75;;;10.21;59.82
31005;BME280;17676;52.254;4.490;2023-04-01T04:12:45;99384.94;;;10.18;60.04
31005;BME280;17676;52.254;4.490;2023-04-01T04:15:11;99392.22;;;10.18;60.20
31005;BME280;17676;52.254;4.490;2023-04-01T04:17:37;99389.25;;;10.19;60.16
31005;BME280;17676;52.254;4.490;2023-04-01T04:20:02;99401.25;;;10.23;60.22
31005;BME280;17676;52.254;4.490;2023-04-01T04:22:28;99397.38;;;10.19;60.47
31005;BME280;17676;52.254;4.490;2023-04-01T04:24:53;99398.09;;;10.14;60.95
31005;BME280;17676;52.254;4.490;2023-04-01T04:27:19;99397.28;;;10.14;61.11
31005;BME280;17676;52.254;4.490;2023-04-01T04:29:45;99400.56;;;10.16;61.20
31005;BME280;17676;52.254;4.490;2023-04-01T04:32:10;99410.06;;;10.18;61.12
31005;BME280;17676;52.254;4.490;2023-04-01T04:34:36;99412.09;;;10.12;61.74
31005;BME280;17676;52.254;4.490;2023-04-01T04:37:02;99410.06;;;10.18;61.44
31005;BME280;17676;52.254;4.490;2023-04-01T04:39:29;99417.38;;;10.06;62.26
31005;BME280;17676;52.254;4.490;2023-04-01T04:41:55;99426.56;;;10.05;62.42
31005;BME280;17676;52.254;4.490;2023-04-01T04:44:20;99424.78;;;10.11;62.29
31005;BME280;17676;52.254;4.490;2023-04-01T04:46:45;99430.19;;;10.11;62.10
31005;BME280;17676;52.254;4.490;2023-04-01T04:49:11;99430.78;;;10.13;62.19
31005;BME280;17676;52.254;4.490;2023-04-01T04:51:37;99437.94;;;10.19;62.06
31005;BME280;17676;52.254;4.490;2023-04-01T04:54:03;99449.44;;;10.26;61.89
31005;BME280;17676;52.254;4.490;2023-04-01T04:56:29;99447.53;;;10.27;61.94
31005;BME280;17676;52.254;4.490;2023-04-01T04:58:55;99455.91;;;10.25;62.23
31005;BME280;17676;52.254;4.490;2023-04-01T05:01:21;99455.78;;;10.20;62.68
31005;BME280;17676;52.254;4.490;2023-04-01T05:03:46;99463.31;;;10.18;63.21
31005;BME280;17676;52.254;4.490;2023-04-01T05:06:14;99468.25;;;10.21;63.23
31005;BME280;17676;52.254;4.490;2023-04-01T05:08:42;99460.94;;;10.22;63.52
31005;BME280;17676;52.254;4.490;2023-04-01T05:11:11;99475.06;;;10.12;64.29
31005;BME280;17676;52.254;4.490;2023-04-01T05:13:37;99473.34;;;10.06;64.94
31005;BME280;17676;52.254;4.490;2023-04-01T05:16:03;99473.44;;;10.11;64.54
31005;BME280;17676;52.254;4.490;2023-04-01T05:18:28;99484.25;;;10.11;64.79
31005;BME280;17676;52.254;4.490;2023-04-01T05:20:54;99479.69;;;10.12;64.73
31005;BME280;17676;52.254;4.490;2023-04-01T05:23:21;99490.63;;;10.05;65.31
31005;BME280;17676;52.254;4.490;2023-04-01T05:25:48;99486.38;;;10.09;64.99
31005;BME280;17676;52.254;4.490;2023-04-01T05:28:15;99493.91;;;10.07;65.12
31005;BME280;17676;52.254;4.490;2023-04-01T05:30:41;99492.25;;;10.06;65.03
31005;BME280;17676;52.254;4.490;2023-04-01T05:33:07;99499.41;;;10.00;65.47
31005;BME280;17676;52.254;4.490;2023-04-01T05:35:33;99514.78;;;10.00;65.45
31005;BME280;17676;52.254;4.490;2023-04-01T05:37:58;99503.06;;;10.06;64.84
31005;BME280;17676;52.254;4.490;2023-04-01T05:40:24;99506.47;;;10.13;64.48
31005;BME280;17676;52.254;4.490;2023-04-01T05:42:49;99510.13;;;10.07;65.00
31005;BME280;17676;52.254;4.490;2023-04-01T05:45:15;99533.00;;;10.04;65.15
31005;BME280;17676;52.254;4.490;2023-04-01T05:47:41;99525.03;;;10.09;64.78
31005;BME280;17676;52.254;4.490;2023-04-01T05:50:08;99522.56;;;10.08;64.96
31005;BME280;17676;52.254;4.490;2023-04-01T05:52:34;99536.22;;;10.13;64.58
31005;BME280;17676;52.254;4.490;2023-04-01T05:54:59;99539.16;;;10.12;64.78
31005;BME280;17676;52.254;4.490;2023-04-01T05:57:25;99545.34;;;10.12;65.07
31005;BME280;17676;52.254;4.490;2023-04-01T05:59:51;99543.72;;;10.11;65.14
31005;BME280;17676;52.254;4.490;2023-04-01T06:02:17;99542.78;;;10.05;65.77
31005;BME280;17676;52.254;4.490;2023-04-01T06:04:45;99548.38;;;10.04;65.72
31005;BME280;17676;52.254;4.490;2023-04-01T06:07:15;99558.31;;;10.10;65.43
31005;BME280;17676;52.254;4.490;2023-04-01T06:09:42;99565.34;;;10.11;65.38
31005;BME280;17676;52.254;4.490;2023-04-01T06:18:19;99579.19;;;10.03;66.21
31005;BME280;17676;52.254;4.490;2023-04-01T06:26:28;99590.75;;;10.10;65.85
31005;BME280;17676;52.254;4.490;2023-04-01T06:29:16;99590.13;;;10.08;66.02
31005;BME280;17676;52.254;4.490;2023-04-01T06:58:24;99638.56;;;10.09;66.46
31005;BME280;17676;52.254;4.490;2023-04-01T07:00:57;99639.84;;;10.07;66.78
31005;BME280;17676;52.254;4.490;2023-04-01T07:03:33;99640.13;;;10.17;66.16
31005;BME280;17676;52.254;4.490;2023-04-01T07:06:04;99642.94;;;10.22;65.80
31005;BME280;17676;52.254;4.490;2023-04-01T07:08:33;99644.69;;;10.17;66.50
31005;BME280;17676;52.254;4.490;2023-04-01T07:11:28;99657.72;;;10.08;67.08
31005;BME280;17676;52.254;4.490;2023-04-01T07:16:39;99658.88;;;10.12;67.06
31005;BME280;17676;52.254;4.490;2023-04-01T07:19:12;99654.44;;;10.06;67.34
31005;BME280;17676;52.254;4.490;2023-04-01T07:21:46;99677.81;;;10.12;67.23
31005;BME280;17676;52.254;4.490;2023-04-01T07:24:37;99668.28;;;10.09;67.72
31005;BME280;17676;52.254;4.490;2023-04-01T07:27:08;99680.91;;;10.16;67.61
31005;BME280;17676;52.254;4.490;2023-04-01T07:29:37;99679.34;;;10.08;68.58
31005;BME280;17676;52.254;4.490;2023-04-01T07:32:12;99690.38;;;10.06;68.85
31005;BME280;17676;52.254;4.490;2023-04-01T07:35:02;99691.34;;;10.12;68.57
31005;BME280;17676;52.254;4.490;2023-04-01T07:43:28;99700.50;;;10.11;69.18
31005;BME280;17676;52.254;4.490;2023-04-01T07:48:52;99703.09;;;10.06;69.71
31005;BME280;17676;52.254;4.490;2023-04-01T07:51:37;99710.38;;;10.05;69.97
31005;BME280;17676;52.254;4.490;2023-04-01T07:54:32;99719.31;;;10.06;69.92
31005;BME280;17676;52.254;4.490;2023-04-01T08:10:56;99757.44;;;10.39;69.24
31005;BME280;17676;52.254;4.490;2023-04-01T08:23:51;99755.72;;;10.68;69.29
31005;BME280;17676;52.254;4.490;2023-04-01T08:26:31;99768.38;;;10.79;69.10
31005;BME280;17676;52.254;4.490;2023-04-01T08:31:50;99763.78;;;10.56;72.10
31005;BME280;17676;52.254;4.490;2023-04-01T08:34:25;99754.88;;;10.56;72.60
31005;BME280;17676;52.254;4.490;2023-04-01T08:36:58;99772.16;;;10.78;71.63
31005;BME280;17676;52.254;4.490;2023-04-01T08:39:31;99764.97;;;10.60;73.73
31005;BME280;17676;52.254;4.490;2023-04-01T08:42:18;99770.16;;;10.62;74.42
31005;BME280;17676;52.254;4.490;2023-04-01T09:01:33;99797.69;;;10.82;78.04
31005;BME280;17676;52.254;4.490;2023-04-01T09:13:20;99804.38;;;10.91;81.84
31005;BME280;17676;52.254;4.490;2023-04-01T09:21:35;99816.53;;;10.88;86.81
31005;BME280;17676;52.254;4.490;2023-04-01T09:36:07;99832.16;;;11.09;91.56
31005;BME280;17676;52.254;4.490;2023-04-01T09:38:59;99836.03;;;11.13;93.00
31005;BME280;17676;52.254;4.490;2023-04-01T09:41:39;99838.97;;;11.12;95.67
31005;BME280;17676;52.254;4.490;2023-04-01T09:44:32;99845.47;;;11.22;95.89
31005;BME280;17676;52.254;4.490;2023-04-01T09:52:44;99840.97;;;11.39;100.00
31005;BME280;17676;52.254;4.490;2023-04-01T10:00:39;99855.22;;;11.35;100.00
31005;BME280;17676;52.254;4.490;2023-04-01T10:03:42;99861.72;;;11.22;100.00
31005;BME280;17676;52.254;4.490;2023-04-01T10:18:07;99874.53;;;11.27;100.00
31005;BME280;17676;52.254;4.490;2023-04-01T10:26:39;99877.03;;;11.28;100.00
31005;BME280;17676;52.254;4.490;2023-04-01T10:32:14;99882.53;;;11.68;100.00
31005;BME280;17676;52.254;4.490;2023-04-01T11:00:10;99898.22;;;11.66;100.00
31005;BME280;17676;52.254;4.490;2023-04-01T11:08:45;99898.78;;;11.56;100.00
31005;BME280;17676;52.254;4.490;2023-04-01T11:17:27;99910.38;;;11.63;100.00
31005;BME280;17676;52.254;4.490;2023-04-01T11:23:02;99915.16;;;11.84;100.00
31005;BME280;17676;52.254;4.490;2023-04-01T11:28:27;99922.22;;;12.25;100.00
31005;BME280;17676;52.254;4.490;2023-04-01T11:42:15;99927.53;;;12.20;100.00
31005;BME280;17676;52.254;4.490;2023-04-01T11:44:46;99932.81;;;12.26;100.00
31005;BME280;17676;52.254;4.490;2023-04-01T11:50:50;99933.34;;;12.51;100.00
31005;BME280;17676;52.254;4.490;2023-04-01T11:58:58;99948.16;;;12.60;100.00
31005;BME280;17676;52.254;4.490;2023-04-01T12:01:42;99954.28;;;12.67;100.00
31005;BME280;17676;52.254;4.490;2023-04-01T12:07:15;99958.00;;;12.50;100.00
31005;BME280;17676;52.254;4.490;2023-04-01T12:09:56;99964.38;;;12.44;100.00
31005;BME280;17676;52.254;4.490;2023-04-01T12:35:21;99980.97;;;12.87;100.00
31005;BME280;17676;52.254;4.490;2023-04-01T12:49:17;99983.47;;;13.05;100.00
31005;BME280;17676;52.254;4.490;2023-04-01T13:00:12;100001.97;;;12.63;100.00
31005;BME280;17676;52.254;4.490;2023-04-01T13:02:58;99999.13;;;12.86;100.00
31005;BME280;17676;52.254;4.490;2023-04-01T13:08:52;100005.03;;;13.11;100.00
31005;BME280;17676;52.254;4.490;2023-04-01T13:17:20;100012.22;;;13.17;100.00
31005;BME280;17676;52.254;4.490;2023-04-01T13:22:36;100014.78;;;13.24;100.00
31005;BME280;17676;52.254;4.490;2023-04-01T13:27:35;100031.91;;;13.90;100.00
31005;BME280;17676;52.254;4.490;2023-04-01T13:32:56;100037.59;;;13.89;100.00
31005;BME280;17676;52.254;4.490;2023-04-01T13:35:46;100043.56;;;13.69;100.00
31005;BME280;17676;52.254;4.490;2023-04-01T13:44:16;100038.84;;;13.48;100.00
31005;BME280;17676;52.254;4.490;2023-04-01T13:46:48;100037.44;;;13.29;100.00
31005;BME280;17676;52.254;4.490;2023-04-01T13:55:26;100044.63;;;12.79;100.00
31005;BME280;17676;52.254;4.490;2023-04-01T14:03:18;100066.75;;;12.60;100.00
31005;BME280;17676;52.254;4.490;2023-04-01T14:06:02;100081.41;;;12.59;100.00
31005;BME280;17676;52.254;4.490;2023-04-01T14:08:42;100073.78;;;12.44;100.00
31005;BME280;17676;52.254;4.490;2023-04-01T14:14:20;100091.84;;;12.27;100.00
31005;BME280;17676;52.254;4.490;2023-04-01T14:22:39;100094.94;;;12.19;100.00
31005;BME280;17676;52.254;4.490;2023-04-01T14:28:13;100110.59;;;12.17;100.00
31005;BME280;17676;52.254;4.490;2023-04-01T14:31:14;100112.75;;;12.15;100.00
31005;BME280;17676;52.254;4.490;2023-04-01T14:37:07;100134.19;;;12.28;100.00
31005;BME280;17676;52.254;4.490;2023-04-01T14:48:32;100154.81;;;12.41;100.00
31005;BME280;17676;52.254;4.490;2023-04-01T14:51:16;100156.81;;;12.45;100.00
31005;BME280;17676;52.254;4.490;2023-04-01T14:53:51;100153.28;;;12.56;100.00
31005;BME280;17676;52.254;4.490;2023-04-01T14:56:35;100155.28;;;12.49;100.00
31005;BME280;17676;52.254;4.490;2023-04-01T14:59:07;100167.09;;;12.55;100.00
31005;BME280;17676;52.254;4.490;2023-04-01T15:01:54;100163.44;;;12.49;100.00
31005;BME280;17676;52.254;4.490;2023-04-01T15:04:51;100178.66;;;12.50;100.00
31005;BME280;17676;52.254;4.490;2023-04-01T15:13:15;100209.22;;;12.11;100.00
31005;BME280;17676;52.254;4.490;2023-04-01T15:21:22;100219.56;;;12.03;100.00
31005;BME280;17676;52.254;4.490;2023-04-01T15:31:48;100243.84;;;12.09;100.00
31005;BME280;17676;52.254;4.490;2023-04-01T15:34:48;100242.88;;;11.92;100.00
31005;BME280;17676;52.254;4.490;2023-04-01T15:37:37;100254.06;;;11.96;100.00
31005;BME280;17676;52.254;4.490;2023-04-01T15:40:29;100259.66;;;12.01;100.00
31005;BME280;17676;52.254;4.490;2023-04-01T15:43:00;100268.03;;;12.11;100.00
31005;BME280;17676;52.254;4.490;2023-04-01T15:45:39;100272.63;;;12.10;100.00
31005;BME280;17676;52.254;4.490;2023-04-01T15:48:19;100276.41;;;12.09;100.00
31005;BME280;17676;52.254;4.490;2023-04-01T15:50:55;100289.19;;;12.20;100.00
31005;BME280;17676;52.254;4.490;2023-04-01T15:53:49;100292.63;;;12.27;100.00
31005;BME280;17676;52.254;4.490;2023-04-01T16:06:56;100308.06;;;12.27;100.00
31005;BME280;17676;52.254;4.490;2023-04-01T16:12:12;100314.13;;;11.99;100.00
31005;BME280;17676;52.254;4.490;2023-04-01T16:20:19;100347.94;;;11.67;100.00
31005;BME280;17676;52.254;4.490;2023-04-01T16:22:57;100331.19;;;11.70;100.00
31005;BME280;17676;52.254;4.490;2023-04-01T16:25:41;100345.50;;;11.59;100.00
31005;BME280;17676;52.254;4.490;2023-04-01T16:36:08;100357.22;;;11.53;100.00
31005;BME280;17676;52.254;4.490;2023-04-01T16:41:41;100365.38;;;11.71;100.00
31005;BME280;17676;52.254;4.490;2023-04-01T16:44:18;100378.78;;;11.66;100.00
31005;BME280;17676;52.254;4.490;2023-04-01T16:47:15;100383.81;;;11.45;100.00
31005;BME280;17676;52.254;4.490;2023-04-01T16:49:52;100385.00;;;11.31;100.00
31005;BME280;17676;52.254;4.490;2023-04-01T16:58:25;100403.72;;;11.32;100.00
31005;BME280;17676;52.254;4.490;2023-04-01T17:01:01;100411.84;;;11.32;100.00
31005;BME280;17676;52.254;4.490;2023-04-01T17:03:38;100428.56;;;11.29;100.00
31005;BME280;17676;52.254;4.490;2023-04-01T17:06:19;100420.75;;;11.39;100.00
31005;BME280;17676;52.254;4.490;2023-04-01T17:12:01;100435.59;;;11.37;100.00
31005;BME280;17676;52.254;4.490;2023-04-01T17:15:05;100446.78;;;11.40;100.00
31005;BME280;17676;52.254;4.490;2023-04-01T17:20:31;100454.81;;;11.04;100.00
31005;BME280;17676;52.254;4.490;2023-04-01T17:28:27;100478.75;;;11.07;100.00
31005;BME280;17676;52.254;4.490;2023-04-01T17:36:58;100495.38;;;10.86;100.00
31005;BME280;17676;52.254;4.490;2023-04-01T17:52:09;100539.88;;;10.97;100.00
31005;BME280;17676;52.254;4.490;2023-04-01T17:54:11;100534.09;;;10.87;100.00
31005;BME280;17676;52.254;4.490;2023-04-01T17:59:36;100549.59;;;11.04;100.00
31005;BME280;17676;52.254;4.490;2023-04-01T18:02:22;100564.03;;;10.98;100.00
31005;BME280;17676;52.254;4.490;2023-04-01T18:21:44;100595.06;;;10.58;100.00
31005;BME280;17676;52.254;4.490;2023-04-01T18:26:39;100616.03;;;10.63;100.00
31005;BME280;17676;52.254;4.490;2023-04-01T18:29:14;100613.78;;;10.60;100.00
31005;BME280;17676;52.254;4.490;2023-04-01T18:31:48;100621.28;;;10.58;100.00
31005;BME280;17676;52.254;4.490;2023-04-01T18:34:50;100630.66;;;10.49;100.00
31005;BME280;17676;52.254;4.490;2023-04-01T18:37:37;100639.00;;;10.47;100.00
31005;BME280;17676;52.254;4.490;2023-04-01T18:40:37;100642.78;;;10.40;100.00
31005;BME280;17676;52.254;4.490;2023-04-01T18:43:26;100655.69;;;10.31;100.00
31005;BME280;17676;52.254;4.490;2023-04-01T18:46:07;100662.97;;;10.24;100.00
31005;BME280;17676;52.254;4.490;2023-04-01T18:48:48;100671.72;;;10.20;100.00
31005;BME280;17676;52.254;4.490;2023-04-01T18:51:20;100671.72;;;10.26;100.00
31005;BME280;17676;52.254;4.490;2023-04-01T18:53:59;100677.53;;;10.23;100.00
31005;BME280;17676;52.254;4.490;2023-04-01T18:56:28;100696.06;;;10.20;100.00
31005;BME280;17676;52.254;4.490;2023-04-01T18:58:59;100689.63;;;10.07;100.00
31005;BME280;17676;52.254;4.490;2023-04-01T19:04:42;100714.94;;;9.87;100.00
31005;BME280;17676;52.254;4.490;2023-04-01T19:07:43;100715.78;;;9.81;100.00
31005;BME280;17676;52.254;4.490;2023-04-01T19:15:39;100720.75;;;9.84;100.00
31005;BME280;17676;52.254;4.490;2023-04-01T19:21:19;100749.91;;;9.95;100.00
31005;BME280;17676;52.254;4.490;2023-04-01T19:24:16;100754.69;;;9.93;100.00
31005;BME280;17676;52.254;4.490;2023-04-01T19:31:50;100765.00;;;9.57;100.00
31005;BME280;17676;52.254;4.490;2023-04-01T19:37:36;100788.09;;;9.66;100.00
31005;BME280;17676;52.254;4.490;2023-04-01T19:45:40;100793.72;;;9.71;100.00
31005;BME280;17676;52.254;4.490;2023-04-01T19:48:28;100808.09;;;9.78;100.00
31005;BME280;17676;52.254;4.490;2023-04-01T19:56:55;100811.78;;;9.64;100.00
31005;BME280;17676;52.254;4.490;2023-04-01T20:11:09;100851.28;;;9.58;100.00
31005;BME280;17676;52.254;4.490;2023-04-01T20:16:18;100862.88;;;9.52;100.00
31005;BME280;17676;52.254;4.490;2023-04-01T20:18:55;100861.63;;;9.55;100.00
31005;BME280;17676;52.254;4.490;2023-04-01T20:24:24;100873.31;;;9.62;100.00
31005;BME280;17676;52.254;4.490;2023-04-01T20:27:06;100881.53;;;9.41;100.00
31005;BME280;17676;52.254;4.490;2023-04-01T20:38:58;100911.19;;;9.07;100.00
31005;BME280;17676;52.254;4.490;2023-04-01T20:47:51;100929.31;;;9.13;100.00
31005;BME280;17676;52.254;4.490;2023-04-01T21:07:22;100970.09;;;8.97;100.00
31005;BME280;17676;52.254;4.490;2023-04-01T21:12:50;100986.53;;;9.02;100.00
31005;BME280;17676;52.254;4.490;2023-04-01T21:15:21;100985.25;;;8.98;100.00
31005;BME280;17676;52.254;4.490;2023-04-01T21:18:16;100987.91;;;8.91;100.00
31005;BME280;17676;52.254;4.490;2023-04-01T21:21:05;100993.78;;;9.01;100.00
31005;BME280;17676;52.254;4.490;2023-04-01T21:26:43;101007.00;;;8.90;100.00
31005;BME280;17676;52.254;4.490;2023-04-01T21:32:29;101018.56;;;8.84;100.00
31005;BME280;17676;52.254;4.490;2023-04-01T21:46:40;101044.94;;;8.67;100.00
31005;BME280;17676;52.254;4.490;2023-04-01T22:00:38;101070.47;;;8.65;100.00
31005;BME280;17676;52.254;4.490;2023-04-01T22:14:43;101098.69;;;8.48;100.00
31005;BME280;17676;52.254;4.490;2023-04-01T22:17:17;101099.50;;;8.48;100.00
31005;BME280;17676;52.254;4.490;2023-04-01T22:31:03;101116.28;;;8.44;100.00
31005;BME280;17676;52.254;4.490;2023-04-01T22:36:48;101133.75;;;8.48;100.00
31005;BME280;17676;52.254;4.490;2023-04-01T22:42:07;101138.09;;;8.49;100.00
31005;BME280;17676;52.254;4.490;2023-04-01T22:50:46;101151.28;;;8.15;100.00
31005;BME280;17676;52.254;4.490;2023-04-01T22:56:09;101177.53;;;8.21;100.00
31005;BME280;17676;52.254;4.490;2023-04-01T22:58:42;101175.84;;;8.20;100.00
31005;BME280;17676;52.254;4.490;2023-04-01T23:01:25;101173.91;;;8.28;100.00
31005;BME280;17676;52.254;4.490;2023-04-01T23:03:55;101187.56;;;8.27;100.00
31005;BME280;17676;52.254;4.490;2023-04-01T23:06:27;101188.22;;;8.29;100.00
31005;BME280;17676;52.254;4.490;2023-04-01T23:19:57;101203.75;;;8.27;100.00
31005;BME280;17676;52.254;4.490;2023-04-01T23:22:49;101210.84;;;8.28;100.00
31005;BME280;17676;52.254;4.490;2023-04-01T23:38:40;101224.53;;;8.04;100.00
31005;BME280;17676;52.254;4.490;2023-04-01T23:41:18;101224.13;;;8.07;100.00